createdAt,value
2023-05-13T00:01:10.737Z,100.00
2023-05-13T00:03:42.374Z,100.00
2023-05-13T00:06:14.040Z,100.00
2023-05-13T00:08:45.530Z,100.00
2023-05-13T00:11:16.879Z,100.00
2023-05-13T00:13:48.252Z,100.00
2023-05-13T00:16:19.752Z,100.00
2023-05-13T00:18:51.628Z,100.00
2023-05-13T00:21:23.595Z,100.00
2023-05-13T00:23:55.019Z,100.00
2023-05-13T00:26:26.453Z,100.00
2023-05-13T00:28:57.848Z,100.00
2023-05-13T00:31:29.359Z,100.00
2023-05-13T00:34:00.829Z,100.00
2023-05-13T00:36:32.192Z,100.00
2023-05-13T00:39:03.943Z,100.00
2023-05-13T00:41:35.275Z,100.00
2023-05-13T00:44:06.617Z,100.00
2023-05-13T00:46:38.002Z,100.00
2023-05-13T00:49:09.433Z,100.00
2023-05-13T00:51:40.823Z,100.00
2023-05-13T00:54:12.216Z,100.00
2023-05-13T00:56:43.550Z,100.00
2023-05-13T00:59:14.915Z,100.00
2023-05-13T01:01:52.189Z,100.00
2023-05-13T01:04:32.717Z,100.00
2023-05-13T01:07:04.093Z,100.00
2023-05-13T01:09:38.276Z,100.00
2023-05-13T01:12:13.005Z,100.00
2023-05-13T01:14:57.521Z,100.00
2023-05-13T01:17:32.664Z,100.00
2023-05-13T01:20:07.204Z,100.00
2023-05-13T01:22:38.519Z,100.00
2023-05-13T01:25:09.908Z,100.00
2023-05-13T01:27:41.405Z,100.00
2023-05-13T01:30:13.063Z,100.00
2023-05-13T01:32:44.556Z,100.00
2023-05-13T01:35:16.346Z,100.00
2023-05-13T01:37:49.045Z,100.00
2023-05-13T01:40:31.689Z,100.00
2023-05-13T01:43:03.789Z,100.00
2023-05-13T01:45:35.189Z,100.00
2023-05-13T01:48:06.612Z,100.00
2023-05-13T01:50:38.087Z,100.00
2023-05-13T01:53:09.448Z,100.00
2023-05-13T01:55:40.886Z,100.00
2023-05-13T01:58:12.223Z,100.00
2023-05-13T02:00:43.589Z,100.00
2023-05-13T02:03:15.064Z,100.00
2023-05-13T02:05:47.624Z,100.00
2023-05-13T02:08:19.169Z,100.00
2023-05-13T02:10:57.022Z,100.00
2023-05-13T02:13:28.422Z,100.00
2023-05-13T02:15:59.869Z,100.00
2023-05-13T02:18:31.446Z,100.00
2023-05-13T02:21:02.879Z,100.00
2023-05-13T02:23:34.388Z,100.00
2023-05-13T02:26:05.887Z,100.00
2023-05-13T02:28:37.216Z,100.00
2023-05-13T02:31:08.652Z,100.00
2023-05-13T02:33:40.038Z,100.00
2023-05-13T02:36:11.396Z,100.00
2023-05-13T02:38:42.707Z,100.00
2023-05-13T02:41:14.156Z,100.00
2023-05-13T02:43:45.762Z,100.00
2023-05-13T02:46:17.179Z,100.00
2023-05-13T02:48:48.658Z,100.00
2023-05-13T02:51:19.992Z,100.00
2023-05-13T02:53:51.941Z,100.00
2023-05-13T02:56:23.363Z,100.00
2023-05-13T02:58:54.773Z,100.00
2023-05-13T03:01:26.981Z,100.00
2023-05-13T03:03:58.431Z,100.00
2023-05-13T03:06:29.784Z,100.00
2023-05-13T03:09:01.148Z,100.00
2023-05-13T03:11:32.583Z,100.00
2023-05-13T03:14:03.986Z,100.00
2023-05-13T03:16:35.339Z,100.00
2023-05-13T03:19:07.141Z,100.00
2023-05-13T03:21:39.025Z,100.00
2023-05-13T03:24:10.332Z,100.00
2023-05-13T03:26:41.666Z,100.00
2023-05-13T03:29:13.402Z,100.00
2023-05-13T03:31:45.504Z,100.00
2023-05-13T03:34:16.904Z,100.00
2023-05-13T03:36:48.332Z,100.00
2023-05-13T03:39:19.662Z,100.00
2023-05-13T03:41:50.974Z,100.00
2023-05-13T03:44:22.315Z,100.00
2023-05-13T03:46:53.721Z,100.00
2023-05-13T03:49:25.155Z,100.00
2023-05-13T03:51:56.488Z,100.00
2023-05-13T03:54:27.855Z,100.00
2023-05-13T03:56:59.190Z,100.00
2023-05-13T03:59:30.614Z,100.00
2023-05-13T04:02:02.048Z,100.00
2023-05-13T04:04:34.624Z,100.00
2023-05-13T04:07:06.034Z,100.00
2023-05-13T04:09:37.425Z,100.00
2023-05-13T04:12:08.774Z,100.00
2023-05-13T04:14:40.161Z,100.00
2023-05-13T04:17:11.495Z,100.00
2023-05-13T04:19:42.849Z,100.00
2023-05-13T04:22:14.199Z,100.00
2023-05-13T04:24:45.526Z,100.00
2023-05-13T04:27:16.875Z,100.00
2023-05-13T04:29:48.288Z,100.00
2023-05-13T04:32:22.487Z,100.00
2023-05-13T04:34:54.488Z,100.00
2023-05-13T04:37:26.420Z,100.00
2023-05-13T04:39:57.798Z,100.00
2023-05-13T04:42:29.349Z,100.00
2023-05-13T04:45:00.680Z,100.00
2023-05-13T04:47:35.127Z,100.00
2023-05-13T04:50:06.918Z,100.00
2023-05-13T04:52:38.842Z,100.00
2023-05-13T04:55:10.217Z,100.00
2023-05-13T04:57:41.616Z,100.00
2023-05-13T05:00:13.300Z,100.00
2023-05-13T05:02:44.742Z,100.00
2023-05-13T05:05:18.205Z,100.00
2023-05-13T05:07:49.941Z,100.00
2023-05-13T05:10:21.615Z,100.00
2023-05-13T05:12:53.132Z,100.00
2023-05-13T05:15:24.564Z,100.00
2023-05-13T05:17:57.048Z,100.00
2023-05-13T05:20:29.678Z,100.00
2023-05-13T05:23:01.087Z,100.00
2023-05-13T05:25:32.595Z,100.00
2023-05-13T05:28:05.314Z,100.00
2023-05-13T05:30:39.729Z,100.00
2023-05-13T05:33:11.458Z,100.00
2023-05-13T05:35:42.775Z,100.00
2023-05-13T05:38:14.180Z,100.00
2023-05-13T05:40:46.231Z,100.00
2023-05-13T05:43:17.668Z,100.00
2023-05-13T05:45:49.226Z,100.00
2023-05-13T05:48:21.111Z,100.00
2023-05-13T05:50:52.509Z,100.00
2023-05-13T05:53:23.995Z,100.00
2023-05-13T05:55:55.321Z,100.00
2023-05-13T05:58:27.312Z,100.00
2023-05-13T06:01:00.555Z,100.00
2023-05-13T06:03:31.987Z,100.00
2023-05-13T06:06:03.461Z,100.00
2023-05-13T06:08:34.992Z,100.00
2023-05-13T06:11:06.317Z,100.00
2023-05-13T06:13:38.518Z,100.00
2023-05-13T06:16:09.922Z,100.00
2023-05-13T06:18:41.357Z,100.00
2023-05-13T06:21:12.699Z,100.00
2023-05-13T06:23:44.045Z,100.00
2023-05-13T06:26:15.538Z,100.00
2023-05-13T06:28:46.900Z,100.00
2023-05-13T06:31:18.267Z,100.00
2023-05-13T06:33:49.655Z,100.00
2023-05-13T06:36:20.988Z,100.00
2023-05-13T06:38:53.151Z,100.00
2023-05-13T06:41:24.538Z,100.00
2023-05-13T06:43:55.903Z,100.00
2023-05-13T06:46:27.298Z,100.00
2023-05-13T06:48:58.998Z,100.00
2023-05-13T06:51:32.692Z,100.00
2023-05-13T06:54:04.315Z,100.00
2023-05-13T06:56:35.834Z,100.00
2023-05-13T06:59:07.196Z,100.00
2023-05-13T07:01:38.595Z,100.00
2023-05-13T07:04:10.282Z,100.00
2023-05-13T07:06:41.793Z,100.00
2023-05-13T07:09:13.667Z,100.00
2023-05-13T07:11:45.114Z,100.00
2023-05-13T07:14:16.777Z,100.00
2023-05-13T07:16:48.127Z,100.00
2023-05-13T07:19:19.752Z,100.00
2023-05-13T07:21:51.194Z,100.00
2023-05-13T07:24:22.624Z,100.00
2023-05-13T07:26:54.190Z,100.00
2023-05-13T07:29:27.056Z,100.00
2023-05-13T07:32:03.263Z,100.00
2023-05-13T07:34:34.645Z,100.00
2023-05-13T07:37:06.216Z,100.00
2023-05-13T07:39:37.657Z,100.00
2023-05-13T07:42:09.118Z,100.00
2023-05-13T07:44:40.732Z,100.00
2023-05-13T07:47:13.681Z,100.00
2023-05-13T07:49:45.235Z,100.00
2023-05-13T07:52:16.792Z,100.00
2023-05-13T07:54:48.143Z,100.00
2023-05-13T07:57:19.509Z,100.00
2023-05-13T07:59:50.831Z,100.00
2023-05-13T08:02:22.412Z,100.00
2023-05-13T08:04:53.954Z,100.00
2023-05-13T08:07:25.311Z,100.00
2023-05-13T08:09:56.679Z,100.00
2023-05-13T08:12:28.015Z,100.00
2023-05-13T08:15:00.500Z,100.00
2023-05-13T08:17:31.964Z,100.00
2023-05-13T08:20:04.013Z,100.00
2023-05-13T08:22:35.518Z,100.00
2023-05-13T08:25:06.971Z,100.00
2023-05-13T08:27:38.559Z,100.00
2023-05-13T08:30:10.044Z,100.00
2023-05-13T08:32:49.832Z,100.00
2023-05-13T08:35:21.780Z,100.00
2023-05-13T08:37:53.328Z,100.00
2023-05-13T08:40:24.768Z,100.00
2023-05-13T08:42:57.710Z,100.00
2023-05-13T08:45:29.907Z,100.00
2023-05-13T08:48:02.220Z,100.00
2023-05-13T08:50:33.727Z,100.00
2023-05-13T08:53:07.751Z,100.00
2023-05-13T08:55:40.172Z,100.00
2023-05-13T08:58:12.192Z,100.00
2023-05-13T09:00:43.790Z,100.00
2023-05-13T09:03:15.545Z,100.00
2023-05-13T09:05:47.224Z,100.00
2023-05-13T09:08:18.645Z,100.00
2023-05-13T09:10:51.480Z,100.00
2023-05-13T09:13:22.902Z,100.00
2023-05-13T09:15:54.466Z,100.00
2023-05-13T09:18:29.667Z,100.00
2023-05-13T09:21:23.725Z,100.00
2023-05-13T09:24:11.444Z,100.00
2023-05-13T09:26:43.126Z,100.00
2023-05-13T09:29:14.434Z,100.00
2023-05-13T09:31:56.081Z,100.00
2023-05-13T09:34:27.465Z,100.00
2023-05-13T09:37:08.905Z,100.00
2023-05-13T09:39:41.650Z,100.00
2023-05-13T09:42:16.951Z,100.00
2023-05-13T09:44:49.759Z,100.00
2023-05-13T09:47:21.106Z,100.00
2023-05-13T09:49:56.804Z,100.00
2023-05-13T09:52:29.448Z,100.00
2023-05-13T09:55:01.084Z,100.00
2023-05-13T09:57:32.564Z,100.00
2023-05-13T10:00:11.047Z,100.00
2023-05-13T10:02:47.985Z,100.00
2023-05-13T10:05:19.953Z,100.00
2023-05-13T10:07:51.600Z,100.00
2023-05-13T10:10:23.280Z,100.00
2023-05-13T10:12:57.439Z,100.00
2023-05-13T10:15:29.430Z,100.00
2023-05-13T10:18:02.175Z,100.00
2023-05-13T10:20:33.594Z,100.00
2023-05-13T10:23:05.416Z,100.00
2023-05-13T10:25:37.478Z,100.00
2023-05-13T10:28:09.926Z,100.00
2023-05-13T10:30:41.289Z,100.00
2023-05-13T10:33:12.803Z,100.00
2023-05-13T10:35:50.385Z,100.00
2023-05-13T10:38:39.362Z,100.00
2023-05-13T10:41:22.771Z,100.00
2023-05-13T10:43:58.692Z,100.00
2023-05-13T10:46:30.282Z,100.00
2023-05-13T10:49:01.698Z,100.00
2023-05-13T10:51:33.041Z,100.00
2023-05-13T10:54:17.968Z,100.00
2023-05-13T10:56:59.022Z,100.00
2023-05-13T10:59:30.805Z,100.00
2023-05-13T11:02:03.480Z,100.00
2023-05-13T11:04:54.876Z,100.00
2023-05-13T11:07:29.114Z,100.00
2023-05-13T11:10:00.569Z,100.00
2023-05-13T11:12:31.919Z,100.00
2023-05-13T11:15:20.976Z,100.00
2023-05-13T11:17:53.524Z,100.00
2023-05-13T11:20:24.993Z,100.00
2023-05-13T11:22:56.807Z,100.00
2023-05-13T11:25:28.189Z,100.00
2023-05-13T11:27:59.643Z,100.00
2023-05-13T11:30:30.989Z,100.00
2023-05-13T11:33:08.298Z,100.00
2023-05-13T11:35:39.730Z,100.00
2023-05-13T11:38:21.689Z,100.00
2023-05-13T11:40:55.669Z,100.00
2023-05-13T11:43:27.361Z,100.00
2023-05-13T11:45:59.369Z,100.00
2023-05-13T11:48:30.788Z,100.00
2023-05-13T11:51:02.198Z,100.00
2023-05-13T11:53:33.567Z,100.00
2023-05-13T11:56:11.167Z,100.00
2023-05-13T11:58:42.683Z,100.00
2023-05-13T12:01:14.569Z,100.00
2023-05-13T12:03:45.895Z,100.00
2023-05-13T12:06:17.997Z,100.00
2023-05-13T12:08:49.345Z,100.00
2023-05-13T12:11:20.738Z,100.00
2023-05-13T12:13:52.795Z,100.00
2023-05-13T12:16:24.392Z,100.00
2023-05-13T12:18:59.097Z,100.00
2023-05-13T12:21:34.437Z,100.00
2023-05-13T12:24:18.763Z,100.00
2023-05-13T12:26:50.349Z,100.00
2023-05-13T12:29:21.699Z,100.00
2023-05-13T12:32:04.075Z,100.00
2023-05-13T12:34:35.870Z,100.00
2023-05-13T12:37:11.622Z,100.00
2023-05-13T12:39:43.637Z,100.00
2023-05-13T12:42:15.777Z,100.00
2023-05-13T12:44:47.521Z,100.00
2023-05-13T12:47:23.160Z,100.00
2023-05-13T12:49:55.740Z,100.00
2023-05-13T12:52:27.080Z,100.00
2023-05-13T12:54:58.455Z,100.00
2023-05-13T12:57:31.614Z,100.00
2023-05-13T13:00:04.716Z,100.00
2023-05-13T13:02:36.788Z,100.00
2023-05-13T13:05:08.500Z,100.00
2023-05-13T13:07:42.089Z,100.00
2023-05-13T13:10:13.613Z,100.00
2023-05-13T13:12:44.981Z,100.00
2023-05-13T13:15:17.455Z,100.00
2023-05-13T13:17:48.833Z,100.00
2023-05-13T13:20:20.382Z,100.00
2023-05-13T13:22:52.937Z,100.00
2023-05-13T13:25:24.463Z,100.00
2023-05-13T13:27:56.285Z,100.00
2023-05-13T13:30:27.695Z,100.00
2023-05-13T13:32:59.164Z,100.00
2023-05-13T13:35:30.678Z,100.00
2023-05-13T13:38:02.041Z,100.00
2023-05-13T13:40:33.382Z,100.00
2023-05-13T13:43:05.523Z,100.00
2023-05-13T13:45:36.870Z,100.00
2023-05-13T13:48:08.267Z,100.00
2023-05-13T13:50:39.825Z,100.00
2023-05-13T13:53:11.237Z,100.00
2023-05-13T13:55:42.590Z,100.00
2023-05-13T13:58:14.560Z,100.00
2023-05-13T14:00:45.938Z,100.00
2023-05-13T14:03:17.591Z,100.00
2023-05-13T14:05:49.208Z,100.00
2023-05-13T14:08:20.808Z,100.00
2023-05-13T14:10:52.498Z,100.00
2023-05-13T14:13:23.881Z,100.00
2023-05-13T14:15:55.264Z,100.00
2023-05-13T14:18:26.659Z,100.00
2023-05-13T14:20:58.011Z,100.00
2023-05-13T14:23:29.383Z,100.00
2023-05-13T14:26:00.880Z,100.00
2023-05-13T14:28:32.284Z,100.00
2023-05-13T14:31:03.795Z,100.00
2023-05-13T14:33:35.408Z,100.00
2023-05-13T14:36:08.089Z,100.00
2023-05-13T14:38:39.872Z,100.00
2023-05-13T14:41:12.220Z,100.00
2023-05-13T14:43:43.631Z,100.00
2023-05-13T14:46:15.115Z,100.00
2023-05-13T14:48:46.593Z,100.00
2023-05-13T14:51:17.995Z,100.00
2023-05-13T14:53:49.379Z,100.00
2023-05-13T14:56:20.807Z,100.00
2023-05-13T14:58:53.080Z,100.00
2023-05-13T15:01:24.579Z,100.00
2023-05-13T15:03:58.094Z,100.00
2023-05-13T15:06:29.592Z,100.00
2023-05-13T15:09:00.987Z,100.00
2023-05-13T15:11:33.146Z,100.00
2023-05-13T15:14:04.896Z,100.00
2023-05-13T15:16:36.363Z,100.00
2023-05-13T15:19:07.819Z,100.00
2023-05-13T15:21:39.356Z,100.00
2023-05-13T15:24:10.740Z,100.00
2023-05-13T15:26:42.205Z,100.00
2023-05-13T15:29:13.559Z,100.00
2023-05-13T15:31:44.904Z,100.00
2023-05-13T15:34:16.448Z,100.00
2023-05-13T15:36:47.941Z,100.00
2023-05-13T15:39:19.388Z,100.00
2023-05-13T15:41:50.707Z,100.00
2023-05-13T15:44:22.513Z,100.00
2023-05-13T15:46:53.904Z,100.00
2023-05-13T15:49:25.530Z,100.00
2023-05-13T15:51:57.700Z,100.00
2023-05-13T15:54:29.041Z,100.00
2023-05-13T15:57:00.447Z,100.00
2023-05-13T15:59:31.860Z,100.00
2023-05-13T16:02:03.265Z,100.00
2023-05-13T16:04:34.724Z,53.08
2023-05-13T16:07:10.780Z,53.56
2023-05-13T16:09:51.407Z,54.38
2023-05-13T16:12:22.723Z,52.28
2023-05-13T16:14:55.378Z,54.65
2023-05-13T16:18:22.690Z,56.96
2023-05-13T16:20:55.878Z,58.13
2023-05-13T16:23:27.373Z,57.96
2023-05-13T16:25:58.885Z,59.81
2023-05-13T16:28:30.405Z,60.59
2023-05-13T16:31:03.659Z,61.49
2023-05-13T16:33:36.476Z,61.63
2023-05-13T16:36:10.115Z,61.29
2023-05-13T16:38:41.769Z,61.61
2023-05-13T16:41:13.591Z,62.50
2023-05-13T16:43:45.057Z,62.34
2023-05-13T16:46:17.556Z,60.56
2023-05-13T16:48:49.291Z,61.58
2023-05-13T16:51:20.986Z,60.49
2023-05-13T16:53:52.558Z,59.98
2023-05-13T16:56:26.163Z,60.17
2023-05-13T16:58:58.451Z,61.15
2023-05-13T17:01:30.001Z,61.54
2023-05-13T17:04:01.571Z,61.38
2023-05-13T17:06:33.178Z,62.46
2023-05-13T17:09:05.987Z,62.83
2023-05-13T17:11:38.809Z,61.93
2023-05-13T17:14:10.977Z,61.80
2023-05-13T17:16:42.577Z,62.20
2023-05-13T17:19:14.186Z,62.34
2023-05-13T17:21:45.961Z,62.73
2023-05-13T17:24:17.643Z,63.33
2023-05-13T17:26:49.758Z,64.10
2023-05-13T17:30:46.859Z,64.36
2023-05-13T17:33:18.381Z,65.63
2023-05-13T17:35:49.905Z,66.05
2023-05-13T17:38:21.452Z,67.16
2023-05-13T17:40:53.018Z,67.36
2023-05-13T17:43:24.589Z,68.23
2023-05-13T17:45:56.273Z,67.64
2023-05-13T17:48:50.316Z,68.71
2023-05-13T17:51:21.995Z,69.30
2023-05-13T17:53:53.486Z,70.78
2023-05-13T17:56:25.289Z,70.12
2023-05-13T17:58:56.865Z,70.12
2023-05-13T18:01:28.269Z,71.93
2023-05-13T18:03:59.772Z,71.31
2023-05-13T18:06:31.372Z,71.67
2023-05-13T18:09:02.964Z,71.70
2023-05-13T18:11:34.569Z,72.36
2023-05-13T18:14:06.831Z,72.07
2023-05-13T18:16:39.984Z,73.54
2023-05-13T18:19:11.665Z,73.72
2023-05-13T18:21:43.084Z,74.64
2023-05-13T18:24:15.384Z,75.83
2023-05-13T18:26:46.685Z,76.20
2023-05-13T18:29:19.461Z,76.68
2023-05-13T18:31:50.900Z,77.73
2023-05-13T18:34:22.270Z,77.87
2023-05-13T18:36:54.068Z,79.26
2023-05-13T18:39:25.514Z,78.88
2023-05-13T18:41:57.921Z,78.81
2023-05-13T18:44:29.582Z,79.72
2023-05-13T18:47:01.032Z,79.72
2023-05-13T18:49:32.915Z,80.11
2023-05-13T18:52:05.566Z,80.49
2023-05-13T18:54:37.367Z,80.62
2023-05-13T18:57:08.992Z,80.57
2023-05-13T18:59:40.430Z,80.67
2023-05-13T19:02:11.936Z,80.76
2023-05-13T19:04:43.485Z,81.44
2023-05-13T19:07:14.830Z,81.69
2023-05-13T19:09:49.119Z,82.20
2023-05-13T19:12:20.530Z,82.17
2023-05-13T19:14:52.731Z,82.94
2023-05-13T19:17:26.013Z,83.20
2023-05-13T19:20:00.259Z,83.56
2023-05-13T19:22:31.667Z,82.73
2023-05-13T19:25:03.072Z,83.28
2023-05-13T19:27:34.808Z,83.65
2023-05-13T19:30:06.424Z,83.83
2023-05-13T19:32:37.850Z,83.98
2023-05-13T19:35:09.725Z,85.15
2023-05-13T19:37:41.226Z,85.29
2023-05-13T19:40:12.790Z,85.78
2023-05-13T19:42:44.322Z,85.85
2023-05-13T19:45:20.645Z,86.15
2023-05-13T19:47:52.251Z,85.82
2023-05-13T19:50:24.128Z,86.02
2023-05-13T19:52:57.390Z,86.32
2023-05-13T19:55:28.916Z,85.69
2023-05-13T19:58:00.917Z,85.99
2023-05-13T20:00:32.483Z,86.28
2023-05-13T20:03:04.998Z,86.25
2023-05-13T20:05:36.562Z,86.35
2023-05-13T20:08:09.519Z,86.29
2023-05-13T20:10:42.537Z,85.49
2023-05-13T20:13:14.199Z,86.71
2023-05-13T20:15:45.957Z,86.23
2023-05-13T20:18:17.592Z,84.34
2023-05-13T20:20:49.632Z,82.97
2023-05-13T20:23:21.181Z,82.04
2023-05-13T20:26:01.902Z,81.37
2023-05-13T20:28:34.711Z,81.76
2023-05-13T20:31:07.660Z,81.34
2023-05-13T20:33:39.190Z,80.22
2023-05-13T20:36:12.121Z,79.52
2023-05-13T20:38:46.045Z,79.66
2023-05-13T20:41:18.093Z,80.09
2023-05-13T20:43:49.744Z,80.35
2023-05-13T20:46:23.316Z,80.77
2023-05-13T20:48:54.999Z,80.87
2023-05-13T20:51:27.628Z,80.39
2023-05-13T20:53:59.245Z,79.95
2023-05-13T20:56:30.755Z,80.74
2023-05-13T20:59:02.286Z,80.35
2023-05-13T21:01:34.836Z,80.45
2023-05-13T21:04:06.565Z,80.63
2023-05-13T21:06:38.197Z,80.15
2023-05-13T21:09:10.069Z,80.15
2023-05-13T21:11:41.549Z,79.90
2023-05-13T21:14:13.137Z,79.69
2023-05-13T21:16:46.292Z,80.07
2023-05-13T21:19:24.867Z,80.74
2023-05-13T21:21:56.445Z,81.03
2023-05-13T21:24:35.340Z,81.09
2023-05-13T21:27:06.907Z,81.76
2023-05-13T21:29:38.425Z,82.30
2023-05-13T21:32:10.927Z,82.04
2023-05-13T21:34:42.487Z,82.45
2023-05-13T21:37:14.424Z,82.43
2023-05-13T21:39:46.506Z,82.22
2023-05-13T21:42:18.099Z,82.36
2023-05-13T21:44:49.641Z,82.58
2023-05-13T21:47:22.511Z,83.02
2023-05-13T21:49:54.118Z,83.16
2023-05-13T21:52:25.661Z,83.63
2023-05-13T21:54:57.177Z,84.12
2023-05-13T21:57:28.900Z,84.29
2023-05-13T22:00:00.456Z,84.31
2023-05-13T22:02:31.981Z,84.54
2023-05-13T22:05:03.651Z,85.27
2023-05-13T22:07:35.352Z,85.62
2023-05-13T22:10:07.848Z,85.85
2023-05-13T22:12:39.336Z,85.62
2023-05-13T22:15:11.637Z,87.06
2023-05-13T22:17:43.115Z,87.71
2023-05-13T22:20:14.668Z,88.61
2023-05-13T22:22:46.304Z,89.03
2023-05-13T22:25:17.884Z,89.49
2023-05-13T22:27:51.308Z,91.22
2023-05-13T22:30:23.203Z,90.58
2023-05-13T22:32:55.819Z,90.87
2023-05-13T22:35:28.942Z,91.03
2023-05-13T22:38:00.541Z,91.21
2023-05-13T22:40:32.060Z,92.21
2023-05-13T22:43:03.754Z,91.64
2023-05-13T22:45:36.987Z,92.25
2023-05-13T22:48:08.666Z,91.74
2023-05-13T22:50:41.771Z,92.40
2023-05-13T22:53:13.372Z,92.25
2023-05-13T22:55:44.904Z,92.35
2023-05-13T22:58:17.698Z,92.44
2023-05-13T23:00:49.742Z,92.79
2023-05-13T23:03:21.369Z,92.85
2023-05-13T23:05:54.796Z,92.56
2023-05-13T23:08:26.478Z,92.59
2023-05-13T23:10:58.063Z,92.97
2023-05-13T23:13:29.633Z,92.68
2023-05-13T23:16:01.587Z,92.97
2023-05-13T23:18:34.521Z,93.11
2023-05-13T23:21:09.007Z,92.91
2023-05-13T23:23:40.663Z,92.95
2023-05-13T23:26:12.155Z,92.72
2023-05-13T23:28:43.731Z,92.87
2023-05-13T23:31:15.387Z,92.54
2023-05-13T23:33:46.975Z,92.52
2023-05-13T23:36:18.463Z,92.39
2023-05-13T23:38:50.772Z,92.14
2023-05-13T23:41:22.543Z,92.51
2023-05-13T23:43:54.022Z,91.83
2023-05-13T23:46:26.471Z,91.69
2023-05-13T23:48:58.281Z,91.31
2023-05-13T23:51:29.847Z,91.45
2023-05-13T23:54:01.522Z,91.15
2023-05-13T23:56:33.046Z,90.75
2023-05-13T23:59:05.472Z,90.81
